Time;durP1;ratioP1;P1;durP2;ratioP2;P2;SDS_P1;SDS_P2;PMS_P1;PMS_P2;Temp;Humidity;BMP_temperature;BMP_pressure;BME280_temperature;BME280_humidity;BME280_pressure;Samples;Min_cycle;Max_cycle;Signal;HPM_P1;HPM_P2
2021/08/03 00:00:54;;;;;;;11.68;5.70;;;;;;;16.50;75.11;100377.81;1689009;82;27144;-78
2021/08/03 00:03:36;;;;;;;8.40;5.40;;;;;;;16.51;75.20;100377.30;1751860;80;25720;-78
2021/08/03 00:06:17;;;;;;;7.35;5.08;;;;;;;16.48;75.15;100379.89;1721761;81;25304;-78
2021/08/03 00:08:51;;;;;;;;;;;;;;;16.44;75.21;100379.23;1714455;82;25944;-77
2021/08/03 00:11:19;;;;;;;8.50;5.58;;;;;;;16.40;75.26;100382.09;1708713;81;26017;-78
2021/08/03 00:13:46;;;;;;;7.85;5.83;;;;;;;16.36;75.26;100375.50;1714430;82;28188;-78
2021/08/03 00:16:14;;;;;;;10.63;5.72;;;;;;;16.32;75.28;100379.69;1758773;80;25779;-78
2021/08/03 00:18:42;;;;;;;6.78;5.30;;;;;;;16.30;75.25;100381.80;1716003;81;25899;-77
2021/08/03 00:21:14;;;;;;;6.72;5.47;;;;;;;16.21;75.15;100380.77;1677536;82;26415;-78
2021/08/03 00:23:45;;;;;;;9.05;5.30;;;;;;;16.18;75.25;100376.36;1730136;80;26729;-77
2021/08/03 00:26:15;;;;;;;6.65;5.47;;;;;;;16.16;75.15;100385.23;1756186;81;27484;-78
2021/08/03 00:28:49;;;;;;;9.68;5.53;;;;;;;16.14;75.26;100385.98;1713065;82;25953;-78
2021/08/03 00:31:16;;;;;;;8.03;5.33;;;;;;;16.13;75.18;100389.20;1684787;81;25932;-78
2021/08/03 00:33:47;;;;;;;;;;;;;;;16.10;75.12;100391.00;1704233;81;26379;-78
2021/08/03 00:36:17;;;;;;;9.50;5.35;;;;;;;16.09;75.14;100388.53;1752932;80;25765;-77
2021/08/03 00:38:44;;;;;;;7.17;5.40;;;;;;;16.07;75.20;100391.98;1676879;81;28371;-77
2021/08/03 00:41:16;;;;;;;7.10;5.55;;;;;;;16.04;75.08;100394.61;1681360;80;25805;-78
2021/08/03 00:43:43;;;;;;;8.00;5.22;;;;;;;16.04;75.07;100398.67;1743564;81;25968;-78
2021/08/03 00:46:11;;;;;;;7.85;5.47;;;;;;;16.03;75.03;100399.73;1737184;82;26548;-77
2021/08/03 00:48:39;;;;;;;7.17;5.60;;;;;;;16.01;74.96;100404.54;1692736;80;25835;-77
2021/08/03 00:51:06;;;;;;;10.53;6.80;;;;;;;15.99;75.01;100408.52;1711849;81;27563;-77
2021/08/03 00:53:33;;;;;;;9.58;5.87;;;;;;;15.99;75.02;100404.47;1727532;81;25825;-77
2021/08/03 00:56:01;;;;;;;11.30;6.05;;;;;;;15.93;74.96;100406.17;1712596;82;26144;-78
2021/08/03 00:58:28;;;;;;;7.42;6.05;;;;;;;15.90;75.04;100398.55;1693108;81;26730;-77
2021/08/03 01:00:57;;;;;;;7.95;5.17;;;;;;;15.91;74.96;100406.13;1719701;81;25903;-78
2021/08/03 01:03:24;;;;;;;9.50;5.08;;;;;;;15.88;74.93;100403.34;1718823;81;27584;-77
2021/08/03 01:06:16;;;;;;;8.88;6.28;;;;;;;15.87;74.95;100403.55;1768360;80;26133;-77
2021/08/03 01:09:01;;;;;;;9.70;6.30;;;;;;;15.87;74.94;100406.25;1699734;81;25828;-78
2021/08/03 01:11:39;;;;;;;6.90;5.90;;;;;;;15.83;74.83;100407.75;1755644;81;26241;-77
2021/08/03 01:14:29;;;;;;;8.90;5.50;;;;;;;15.80;74.86;100402.27;1727117;81;25833;-77
2021/08/03 01:17:06;;;;;;;9.43;5.58;;;;;;;15.75;74.80;100399.96;1708493;81;28134;-77
2021/08/03 01:19:51;;;;;;;6.83;5.72;;;;;;;15.65;74.71;100402.37;1737319;82;25742;-77
2021/08/03 01:22:53;;;;;;;5.85;5.05;;;;;;;15.58;74.89;100402.95;1721337;80;25755;-78
2021/08/03 01:25:58;;;;;;;6.87;5.58;;;;;;;15.55;74.98;100403.39;1722392;81;25949;-77
2021/08/03 01:28:33;;;;;;;8.28;5.45;;;;;;;15.54;75.04;100408.50;1759218;81;25811;-77
2021/08/03 01:31:15;;;;;;;7.83;5.40;;;;;;;15.53;75.06;100406.84;1737892;82;28156;-78
2021/08/03 01:33:47;;;;;;;11.33;6.35;;;;;;;15.53;75.04;100406.84;1714330;81;26509;-77
2021/08/03 01:36:16;;;;;;;11.25;5.87;;;;;;;15.49;75.04;100403.77;1707975;81;25576;-78
2021/08/03 01:38:45;;;;;;;7.37;5.75;;;;;;;15.46;75.14;100407.45;1720356;81;26553;-78
2021/08/03 01:41:16;;;;;;;8.90;4.90;;;;;;;15.47;75.21;100411.78;1756798;81;25890;-77
2021/08/03 01:43:47;;;;;;;9.08;5.37;;;;;;;15.44;75.26;100423.84;1720822;81;27405;-77
2021/08/03 01:46:16;;;;;;;7.28;5.35;;;;;;;15.40;75.21;100418.56;1713541;82;35544;-77
2021/08/03 01:48:48;;;;;;;7.47;4.87;;;;;;;15.34;75.34;100424.34;1695421;80;25885;-77
2021/08/03 01:51:16;;;;;;;7.58;5.22;;;;;;;15.34;75.47;100422.98;1761859;81;25945;-77
2021/08/03 01:53:45;;;;;;;7.42;5.62;;;;;;;15.31;75.48;100418.02;1702898;81;25768;-77
2021/08/03 01:56:14;;;;;;;10.60;6.08;;;;;;;15.29;75.59;100422.81;1723300;81;27562;-77
2021/08/03 01:58:42;;;;;;;9.70;5.25;;;;;;;15.28;75.69;100423.87;1673435;80;25887;-77
2021/08/03 02:01:13;;;;;;;11.85;6.35;;;;;;;15.31;75.69;100425.31;1749290;80;26137;-77
2021/08/03 02:03:41;;;;;;;8.18;5.35;;;;;;;15.31;75.78;100424.77;1719687;81;25872;-77
2021/08/03 02:06:15;;;;;;;7.35;5.58;;;;;;;15.31;75.89;100429.36;1683052;80;25988;-77
2021/08/03 02:08:44;;;;;;;9.18;5.25;;;;;;;15.31;75.97;100438.81;1690517;81;27390;-77
2021/08/03 02:11:16;;;;;;;11.08;6.03;;;;;;;15.32;76.02;100436.39;1748819;81;25812;-77
2021/08/03 02:13:45;;;;;;;7.97;5.70;;;;;;;15.30;76.04;100434.44;1721157;81;26046;-77
2021/08/03 02:16:14;;;;;;;7.20;5.22;;;;;;;15.30;76.04;100445.23;1718226;81;25963;-77
2021/08/03 02:18:45;;;;;;;7.12;5.60;;;;;;;15.30;76.05;100440.67;1713552;82;26475;-77
2021/08/03 02:21:18;;;;;;;11.90;5.58;;;;;;;15.31;75.99;100441.50;1729937;81;27483;-77
2021/08/03 02:23:45;;;;;;;7.85;4.67;;;;;;;15.30;75.92;100440.67;1707777;81;25821;-77
2021/08/03 02:26:13;;;;;;;8.55;5.55;;;;;;;15.29;75.82;100440.36;1731042;81;25757;-77
2021/08/03 02:28:41;;;;;;;8.60;5.60;;;;;;;15.30;75.75;100447.94;1704617;81;26430;-77
2021/08/03 02:31:32;;;;;;;10.78;5.47;;;;;;;15.30;75.66;100447.42;1728715;82;25957;-77
2021/08/03 02:34:19;;;;;;;5.77;4.57;;;;;;;15.29;75.59;100447.10;1771339;80;27432;-77
2021/08/03 02:36:53;;;;;;;12.85;4.90;;;;;;;15.25;75.53;100443.20;1764226;80;25911;-77
2021/08/03 02:39:22;;;;;;;8.88;5.15;;;;;;;15.25;75.32;100447.77;1727670;81;25739;-78
2021/08/03 02:41:50;;;;;;;8.65;5.33;;;;;;;15.21;75.30;100441.98;1731266;81;26583;-77
2021/08/03 02:44:22;;;;;;;7.28;4.53;;;;;;;15.20;75.18;100443.05;1710283;81;26538;-77
2021/08/03 02:46:54;;;;;;;6.15;4.72;;;;;;;15.19;75.04;100443.25;1752057;81;27522;-77
2021/08/03 02:50:07;;;;;;;8.03;4.62;;;;;;;15.17;74.90;100446.18;1725790;81;25908;-77
2021/08/03 02:51:51;;;;;;;9.40;5.15;;;;;;;15.12;74.73;100448.70;1709353;81;25828;-78
2021/08/03 02:54:30;;;;;;;6.35;4.40;;;;;;;15.08;74.68;100448.84;1717645;80;26323;-77
2021/08/03 02:57:03;;;;;;;11.48;5.12;;;;;;;15.05;74.62;100445.25;1725550;80;25938;-77
2021/08/03 02:59:35;;;;;;;10.98;5.20;;;;;;;15.04;74.63;100446.28;1700592;81;27460;-77
2021/08/03 03:02:06;;;;;;;7.62;4.85;;;;;;;15.00;74.51;100453.67;1735722;80;25958;-77
2021/08/03 03:04:51;;;;;;;8.00;4.30;;;;;;;14.98;74.47;100455.77;1722793;81;25860;-77
2021/08/03 03:07:25;;;;;;;9.43;4.50;;;;;;;14.95;74.45;100451.63;1725520;81;26504;-77
2021/08/03 03:09:56;;;;;;;10.13;4.67;;;;;;;14.93;74.46;100461.81;1738003;81;25861;-77
2021/08/03 03:12:26;;;;;;;7.63;4.77;;;;;;;14.89;74.43;100460.60;1700509;81;27354;-77
2021/08/03 03:14:56;;;;;;;8.20;4.23;;;;;;;14.87;74.36;100460.52;1719949;81;25762;-77
2021/08/03 03:17:26;;;;;;;12.98;4.42;;;;;;;14.84;74.40;100461.77;1691737;82;25948;-77
2021/08/03 03:19:57;;;;;;;9.48;5.12;;;;;;;14.80;74.46;100467.30;1753619;80;26132;-77
2021/08/03 03:22:26;;;;;;;9.38;4.20;;;;;;;14.81;74.50;100464.91;1727150;81;25840;-77
2021/08/03 03:24:56;;;;;;;7.03;4.83;;;;;;;14.82;74.44;100477.88;1761934;80;28948;-76
2021/08/03 03:27:25;;;;;;;9.20;4.80;;;;;;;14.83;74.45;100480.36;1728636;81;26527;-77
2021/08/03 03:29:54;;;;;;;10.65;6.83;;;;;;;14.83;74.32;100480.36;1781141;79;25815;-77
2021/08/03 03:32:22;;;;;;;8.90;5.22;;;;;;;14.82;74.24;100477.88;1672889;82;26389;-77
2021/08/03 03:34:51;;;;;;;9.30;5.92;;;;;;;14.80;74.25;100476.73;1695335;79;25850;-77
2021/08/03 03:37:19;;;;;;;8.05;4.87;;;;;;;14.80;74.29;100482.13;1713968;81;27388;-77
2021/08/03 03:39:48;;;;;;;9.43;4.78;;;;;;;14.80;74.24;100481.32;1749676;81;25811;-77
2021/08/03 03:42:16;;;;;;;6.83;4.60;;;;;;;14.78;74.31;100484.76;1702038;82;26105;-77
2021/08/03 03:44:43;;;;;;;6.30;4.35;;;;;;;14.77;74.25;100489.83;1710439;81;25919;-77
2021/08/03 03:47:20;;;;;;;8.95;4.95;;;;;;;14.75;74.31;100488.70;1711190;81;25756;-77
2021/08/03 03:49:54;;;;;;;11.70;5.50;;;;;;;14.76;74.31;100487.65;1743473;81;28121;-77
2021/08/03 03:52:24;;;;;;;13.30;8.00;;;;;;;14.77;74.29;100488.48;1686075;82;25937;-77
2021/08/03 03:54:54;;;;;;;14.25;12.07;;;;;;;14.77;74.27;100498.75;1723930;80;25821;-79
2021/08/03 03:57:22;;;;;;;8.93;6.20;;;;;;;14.77;74.30;100500.10;1747037;81;25876;-77
2021/08/03 03:59:50;;;;;;;8.48;4.60;;;;;;;14.78;74.22;100499.05;1711955;82;25966;-77
2021/08/03 04:02:21;;;;;;;8.55;6.37;;;;;;;14.82;74.23;100500.26;1702980;81;27530;-78
2021/08/03 04:04:48;;;;;;;7.05;4.35;;;;;;;14.84;74.01;100506.27;1738628;81;25780;-77
2021/08/03 04:07:16;;;;;;;6.58;4.75;;;;;;;14.86;73.99;100508.25;1713993;81;25637;-77
2021/08/03 04:09:43;;;;;;;6.70;4.15;;;;;;;14.90;73.96;100505.94;1755564;80;25859;-77
2021/08/03 04:12:14;;;;;;;10.80;6.58;;;;;;;14.92;73.93;100503.33;1691985;81;25887;-77
2021/08/03 04:14:43;;;;;;;9.00;4.87;;;;;;;14.97;73.94;100504.83;1701413;81;27479;-77
2021/08/03 04:17:12;;;;;;;8.10;6.50;;;;;;;15.01;73.86;100503.35;1750363;81;25889;-77
2021/08/03 04:19:41;;;;;;;8.55;4.87;;;;;;;15.04;73.79;100508.33;1747337;81;25803;-78
2021/08/03 04:22:08;;;;;;;11.70;6.35;;;;;;;15.04;73.76;100513.72;1683231;82;26591;-77
2021/08/03 04:24:35;;;;;;;7.45;5.08;;;;;;;15.06;73.76;100514.33;1707423;81;25862;-77
2021/08/03 04:27:02;;;;;;;8.88;5.12;;;;;;;15.08;73.66;100514.94;1721448;81;27651;-77
2021/08/03 04:29:29;;;;;;;5.42;4.05;;;;;;;15.09;73.70;100517.95;1750391;80;26468;-77
2021/08/03 04:31:56;;;;;;;5.85;4.12;;;;;;;15.16;73.79;100520.61;1698619;81;25809;-77
2021/08/03 04:34:23;;;;;;;8.40;5.25;;;;;;;15.18;73.64;100521.22;1705899;81;25888;-77
2021/08/03 04:36:50;;;;;;;11.20;4.75;;;;;;;15.23;73.66;100522.72;1712349;82;25779;-77
2021/08/03 04:39:17;;;;;;;5.37;3.92;;;;;;;15.27;73.61;100524.76;1755372;81;27543;-77
2021/08/03 04:41:44;;;;;;;6.05;3.42;;;;;;;15.34;73.64;100520.15;1699420;81;25805;-77
2021/08/03 04:44:11;;;;;;;6.80;4.45;;;;;;;15.39;73.33;100519.49;1707621;81;25844;-77
2021/08/03 04:46:38;;;;;;;8.53;4.35;;;;;;;15.45;73.29;100511.89;1748571;81;26530;-77
2021/08/03 04:49:05;;;;;;;4.17;3.27;;;;;;;15.48;72.87;100514.16;1718442;81;25552;-78
2021/08/03 04:51:32;;;;;;;5.45;3.30;;;;;;;15.53;72.98;100513.47;1676328;82;27592;-77
2021/08/03 04:53:59;;;;;;;7.35;3.65;;;;;;;15.60;73.03;100517.78;1692919;81;25852;-77
2021/08/03 04:56:26;;;;;;;7.15;3.85;;;;;;;15.67;72.82;100516.38;1722988;81;26287;-77
2021/08/03 04:58:53;;;;;;;4.97;3.75;;;;;;;15.73;72.51;100518.19;1751549;81;25847;-77
2021/08/03 05:01:20;;;;;;;7.85;3.58;;;;;;;15.78;72.44;100520.51;1693420;81;25867;-77
2021/08/03 05:03:47;;;;;;;5.28;3.47;;;;;;;15.84;72.11;100516.11;1716277;81;27690;-77
2021/08/03 05:06:14;;;;;;;8.18;3.60;;;;;;;15.90;72.36;100520.62;1708877;82;25921;-77
2021/08/03 05:08:41;;;;;;;5.45;3.08;;;;;;;15.97;72.16;100526.79;1753605;80;25853;-77
2021/08/03 05:11:09;;;;;;;4.97;2.72;;;;;;;16.04;72.19;100528.87;1691726;81;25845;-77
2021/08/03 05:13:36;;;;;;;4.97;3.00;;;;;;;16.12;72.15;100533.46;1727386;81;25793;-77
2021/08/03 05:16:04;;;;;;;5.00;2.87;;;;;;;16.21;71.98;100539.39;1720512;81;28087;-78
2021/08/03 05:18:31;;;;;;;4.10;2.80;;;;;;;16.30;72.03;100537.22;1758261;81;26069;-78
2021/08/03 05:20:58;;;;;;;5.28;3.35;;;;;;;16.39;71.68;100540.77;1689382;82;25878;-77
2021/08/03 05:23:25;;;;;;;5.37;3.22;;;;;;;16.48;71.54;100547.53;1716507;81;25961;-77
2021/08/03 05:25:52;;;;;;;4.55;2.47;;;;;;;16.57;71.37;100546.73;1688408;82;25808;-78
2021/08/03 05:28:19;;;;;;;4.67;2.12;;;;;;;16.66;71.23;100546.69;1761969;81;27422;-77
2021/08/03 05:30:47;;;;;;;5.15;2.95;;;;;;;16.75;71.04;100549.39;1698104;81;25786;-77
2021/08/03 05:33:14;;;;;;;5.60;2.67;;;;;;;16.80;70.82;100547.67;1705492;81;26239;-77
2021/08/03 05:35:42;;;;;;;4.90;2.58;;;;;;;16.89;70.73;100546.27;1714340;82;25954;-78
2021/08/03 05:38:10;;;;;;;7.22;2.35;;;;;;;16.97;69.93;100539.73;1712512;81;25733;-78
2021/08/03 05:40:37;;;;;;;8.58;2.58;;;;;;;17.08;69.98;100542.18;1693349;81;27518;-78
2021/08/03 05:43:04;;;;;;;6.03;3.37;;;;;;;17.14;69.52;100542.09;1676551;81;26118;-78
2021/08/03 05:45:31;;;;;;;7.08;3.35;;;;;;;17.22;69.46;100544.98;1718201;81;25863;-77
2021/08/03 05:47:58;;;;;;;7.22;3.20;;;;;;;17.32;69.28;100551.48;1752508;81;25844;-77
2021/08/03 05:50:25;;;;;;;5.62;2.75;;;;;;;17.43;69.30;100551.20;1699303;81;25772;-77
2021/08/03 05:52:52;;;;;;;3.98;1.90;;;;;;;17.51;68.45;100556.34;1716529;81;27580;-78
2021/08/03 05:55:20;;;;;;;5.58;2.70;;;;;;;17.59;68.70;100554.64;1716623;81;26203;-78
2021/08/03 05:57:47;;;;;;;9.90;5.60;;;;;;;17.69;67.34;100561.13;1754587;81;25949;-78
2021/08/03 06:00:16;;;;;;;9.23;3.55;;;;;;;17.73;67.56;100558.25;1690905;81;26014;-77
2021/08/03 06:02:43;;;;;;;5.70;2.37;;;;;;;17.80;67.62;100563.55;1720294;81;25798;-78
2021/08/03 06:05:12;;;;;;;6.78;3.10;;;;;;;17.91;67.56;100559.20;1720686;81;27457;-78
2021/08/03 06:07:44;;;;;;;6.90;3.65;;;;;;;18.01;67.02;100551.30;1757009;81;25788;-78
2021/08/03 06:10:15;;;;;;;6.60;2.72;;;;;;;18.07;66.53;100553.89;1678221;82;25807;-78
2021/08/03 06:12:46;;;;;;;3.02;1.77;;;;;;;18.16;66.81;100555.70;1701936;81;25821;-78
2021/08/03 06:15:14;;;;;;;5.47;1.98;;;;;;;18.25;66.46;100551.06;1721471;81;25801;-78
2021/08/03 06:17:49;;;;;;;5.90;2.20;;;;;;;18.36;66.42;100562.42;1736555;82;28105;-77
2021/08/03 06:20:14;;;;;;;4.80;1.67;;;;;;;18.44;65.66;100554.47;1721768;81;25942;-77
2021/08/03 06:22:41;;;;;;;5.12;2.25;;;;;;;18.55;66.15;100550.08;1692876;81;26759;-77
2021/08/03 06:25:16;;;;;;;4.75;1.92;;;;;;;18.67;65.78;100555.77;1718939;81;25819;-78
2021/08/03 06:27:44;;;;;;;4.75;2.15;;;;;;;18.78;66.25;100564.41;1718049;81;25832;-78
2021/08/03 06:30:12;;;;;;;3.77;1.72;;;;;;;18.90;65.92;100564.38;1690264;82;27475;-78
2021/08/03 06:32:42;;;;;;;4.25;1.90;;;;;;;19.02;66.15;100559.72;1704867;81;25828;-78
2021/08/03 06:35:11;;;;;;;3.37;1.80;;;;;;;19.12;64.52;100563.45;1715817;81;25819;-78
2021/08/03 06:37:38;;;;;;;5.17;1.60;;;;;;;19.17;64.20;100564.91;1751701;81;26537;-78
2021/08/03 06:40:06;;;;;;;3.02;1.70;;;;;;;19.25;64.29;100567.22;1719782;81;25959;-78
2021/08/03 06:42:39;;;;;;;4.17;2.27;;;;;;;19.33;64.04;100561.94;1692173;81;28197;-78
2021/08/03 06:45:13;;;;;;;7.53;1.60;;;;;;;19.41;63.60;100565.64;1751495;81;25813;-78
2021/08/03 06:48:09;;;;;;;6.75;1.77;;;;;;;19.45;62.53;100564.61;1699906;81;25961;-77
2021/08/03 06:50:45;;;;;;;4.67;1.75;;;;;;;19.50;62.98;100564.17;1737562;81;26576;-78
2021/08/03 06:53:15;;;;;;;3.40;1.95;;;;;;;19.60;62.86;100567.05;1696705;82;26499;-78
2021/08/03 06:55:46;;;;;;;3.10;2.17;;;;;;;19.67;62.67;100560.10;1758325;81;27455;-78
2021/08/03 06:58:31;;;;;;;;;;;;;;;19.76;63.09;100564.86;1697313;81;26550;-78
2021/08/03 07:01:02;;;;;;;4.55;1.55;;;;;;;19.87;62.96;100563.95;1671900;81;26641;-78
2021/08/03 07:03:33;;;;;;;4.47;1.57;;;;;;;19.96;62.27;100563.00;1736803;82;26635;-78
2021/08/03 07:06:00;;;;;;;5.05;1.77;;;;;;;20.02;61.77;100559.28;1728035;82;25873;-78
2021/08/03 07:08:31;;;;;;;2.90;1.60;;;;;;;20.08;61.23;100564.28;1717152;81;27522;-78
2021/08/03 07:10:59;;;;;;;5.55;1.55;;;;;;;20.13;60.88;100563.80;1710326;82;25821;-78
2021/08/03 07:13:27;;;;;;;2.98;1.67;;;;;;;20.21;60.57;100568.84;1725752;81;25837;-78
2021/08/03 07:15:54;;;;;;;5.33;1.40;;;;;;;20.27;60.60;100563.78;1719307;81;25774;-78
2021/08/03 07:18:22;;;;;;;4.45;1.70;;;;;;;20.33;59.50;100569.58;1674076;82;25820;-78
2021/08/03 07:20:50;;;;;;;5.45;1.35;;;;;;;20.34;59.07;100573.92;1692361;81;28430;-78
2021/08/03 07:23:20;;;;;;;5.47;1.57;;;;;;;20.36;59.25;100566.89;1738135;81;26531;-77
2021/08/03 07:25:51;;;;;;;9.80;2.08;;;;;;;20.43;58.55;100571.59;1748905;81;26177;-78
2021/08/03 07:28:19;;;;;;;;;;;;;;;20.47;58.13;100568.13;1686879;81;25848;-78
2021/08/03 07:30:47;;;;;;;7.80;1.80;;;;;;;20.51;57.58;100576.59;1691226;81;26154;-78
2021/08/03 07:33:16;;;;;;;2.55;1.50;;;;;;;20.53;57.80;100572.55;1713410;82;27480;-78
2021/08/03 07:35:44;;;;;;;2.77;1.15;;;;;;;20.60;58.09;100582.72;1694525;80;26018;-78
2021/08/03 07:38:12;;;;;;;4.17;1.37;;;;;;;20.68;58.34;100578.72;1720786;81;25813;-78
2021/08/03 07:40:41;;;;;;;2.50;1.42;;;;;;;20.75;58.28;100578.83;1701063;81;25939;-78
2021/08/03 07:43:08;;;;;;;3.75;1.05;;;;;;;20.83;57.45;100574.03;1737276;82;25849;-78
2021/08/03 07:45:38;;;;;;;3.15;1.20;;;;;;;20.89;57.55;100575.72;1701814;81;27722;-78
2021/08/03 07:48:11;;;;;;;4.03;1.65;;;;;;;20.95;57.25;100574.17;1678490;82;25854;-78
2021/08/03 07:50:39;;;;;;;2.40;1.47;;;;;;;20.98;57.21;100578.29;1695210;81;46919;-78
2021/08/03 07:53:06;;;;;;;2.52;1.67;;;;;;;21.01;56.47;100577.76;1770587;80;25809;-79
2021/08/03 07:55:33;;;;;;;7.85;1.70;;;;;;;21.06;56.98;100569.69;1728136;82;25575;-78
2021/08/03 07:58:00;;;;;;;5.33;1.35;;;;;;;21.13;57.16;100575.20;1689676;82;27599;-78
2021/08/03 08:00:27;;;;;;;1.90;1.45;;;;;;;21.21;57.11;100571.21;1676759;81;25908;-78
2021/08/03 08:02:56;;;;;;;4.92;1.52;;;;;;;21.28;57.81;100574.00;1751743;81;26582;-78
2021/08/03 08:05:24;;;;;;;2.17;1.42;;;;;;;21.35;56.08;100565.62;1752497;81;25887;-77
2021/08/03 08:07:56;;;;;;;6.33;1.60;;;;;;;21.35;55.12;100570.53;1680329;81;25920;-78
2021/08/03 08:10:19;;;;;;;6.10;1.72;;;;;;;21.39;55.41;100573.02;1717917;81;27388;-77
2021/08/03 08:12:46;;;;;;;3.27;1.40;;;;;;;21.42;54.15;100571.69;1737858;82;25807;-77
2021/08/03 08:15:13;;;;;;;4.30;1.45;;;;;;;21.48;55.68;100573.38;1754697;81;26013;-78
2021/08/03 08:17:40;;;;;;;1.80;1.15;;;;;;;21.56;55.60;100580.24;1665940;82;26491;-78
2021/08/03 08:20:13;;;;;;;3.55;1.60;;;;;;;21.67;54.31;100579.25;1647395;80;25890;-78
2021/08/03 08:22:38;;;;;;;;;;;;;;;21.67;54.60;100579.25;1759295;80;27547;-78
2021/08/03 08:25:10;;;;;;;5.53;1.15;;;;;;;21.71;54.57;100580.38;1723558;81;25836;-77
2021/08/03 08:27:35;;;;;;;4.40;1.80;;;;;;;21.77;55.10;100576.07;1699740;81;25927;-78
2021/08/03 08:30:02;;;;;;;6.08;2.70;;;;;;;21.87;54.41;100583.56;1699047;81;25774;-78
2021/08/03 08:32:29;;;;;;;4.50;2.12;;;;;;;21.92;53.12;100577.59;1739274;82;25745;-78
2021/08/03 08:34:56;;;;;;;3.22;1.92;;;;;;;21.91;52.41;100575.13;1694730;81;27466;-78
2021/08/03 08:37:23;;;;;;;3.37;1.37;;;;;;;21.85;52.92;100570.73;1676275;82;25930;-78
2021/08/03 08:39:50;;;;;;;4.08;1.57;;;;;;;21.89;53.19;100571.84;1694280;81;25820;-78
2021/08/03 08:42:19;;;;;;;8.10;1.80;;;;;;;21.97;52.63;100565.89;1760009;81;26619;-78
2021/08/03 08:44:49;;;;;;;5.85;2.08;;;;;;;22.03;53.21;100569.77;1735815;82;25769;-78
2021/08/03 08:47:20;;;;;;;4.87;1.40;;;;;;;22.10;53.17;100563.55;1693568;80;27415;-78
2021/08/03 08:49:47;;;;;;;3.75;1.30;;;;;;;22.08;52.14;100564.35;1695153;81;35421;-78
2021/08/03 08:52:15;;;;;;;4.83;1.80;;;;;;;22.09;51.63;100569.27;1758393;81;26572;-78
2021/08/03 08:54:43;;;;;;;4.45;1.80;;;;;;;22.15;52.23;100566.28;1711758;81;26602;-78
2021/08/03 08:57:10;;;;;;;2.87;1.37;;;;;;;22.21;52.97;100572.61;1737389;82;25928;-78
2021/08/03 08:59:37;;;;;;;4.20;1.30;;;;;;;22.16;52.29;100572.57;1690980;81;28170;-78
2021/08/03 09:02:05;;;;;;;3.83;1.55;;;;;;;22.11;52.45;100578.81;1761133;81;25802;-78
2021/08/03 09:04:32;;;;;;;2.60;1.70;;;;;;;22.14;51.99;100576.94;1691456;82;25824;-77
2021/08/03 09:07:09;;;;;;;4.80;1.77;;;;;;;22.21;52.19;100574.81;1692665;81;26249;-78
2021/08/03 09:09:46;;;;;;;6.97;1.80;;;;;;;22.33;50.52;100573.22;1721149;81;25844;-77
2021/08/03 09:12:14;;;;;;;2.30;1.30;;;;;;;22.28;50.25;100571.84;1757027;81;28217;-78
2021/08/03 09:14:43;;;;;;;2.72;1.22;;;;;;;22.33;50.59;100573.76;1716048;81;25907;-79
2021/08/03 09:17:15;;;;;;;3.67;1.57;;;;;;;22.44;51.08;100569.47;1700944;81;26580;-78
2021/08/03 09:19:42;;;;;;;2.30;1.65;;;;;;;22.57;51.12;100573.08;1699292;81;26531;-79
2021/08/03 09:22:14;;;;;;;2.52;1.42;;;;;;;22.65;50.74;100572.59;1760581;81;25705;-78
2021/08/03 09:24:43;;;;;;;9.15;5.30;;;;;;;22.60;49.95;100573.96;1712805;82;27523;-78
2021/08/03 09:27:42;;;;;;;11.12;5.22;;;;;;;22.59;49.34;100574.20;1702594;81;26432;-79
2021/08/03 09:30:09;;;;;;;7.40;4.45;;;;;;;22.53;49.67;100565.15;1731796;81;25836;-78
2021/08/03 09:32:38;;;;;;;5.72;3.42;;;;;;;22.53;47.40;100567.88;1748115;80;26062;-77
2021/08/03 09:35:12;;;;;;;6.42;4.03;;;;;;;22.51;49.35;100568.69;1682567;82;26667;-78
2021/08/03 09:37:42;;;;;;;5.78;2.65;;;;;;;22.58;49.89;100563.79;1743028;80;27546;-78
2021/08/03 09:40:30;;;;;;;6.40;3.42;;;;;;;22.63;50.01;100564.39;1698816;81;25880;-78
2021/08/03 09:43:09;;;;;;;4.95;2.33;;;;;;;22.59;49.57;100566.84;1767995;80;25779;-78
2021/08/03 09:45:50;;;;;;;4.03;1.98;;;;;;;22.66;50.17;100564.70;1699528;81;25919;-78
2021/08/03 09:48:20;;;;;;;3.80;1.57;;;;;;;22.84;49.70;100563.38;1737942;82;25833;-78
2021/08/03 09:51:10;;;;;;;5.97;2.42;;;;;;;22.98;50.16;100557.17;1692426;81;28086;-77
2021/08/03 09:53:50;;;;;;;2.93;1.80;;;;;;;23.07;48.98;100568.39;1749817;81;26807;-78
2021/08/03 09:56:21;;;;;;;1.97;1.37;;;;;;;23.19;48.70;100559.93;1719935;81;25470;-78
2021/08/03 09:58:51;;;;;;;3.95;1.80;;;;;;;23.28;47.60;100564.61;1722810;81;25845;-78
2021/08/03 10:01:25;;;;;;;2.83;1.25;;;;;;;23.30;47.81;100565.69;1697806;81;25928;-78
2021/08/03 10:03:54;;;;;;;5.00;2.30;;;;;;;23.28;47.85;100564.61;1750885;81;27530;-78
2021/08/03 10:06:22;;;;;;;4.75;2.33;;;;;;;23.19;47.17;100572.22;1691124;82;26556;-78
2021/08/03 10:08:51;;;;;;;3.15;1.57;;;;;;;23.14;46.90;100568.94;1724241;81;25925;-78
2021/08/03 10:11:19;;;;;;;3.05;1.52;;;;;;;23.14;48.19;100568.94;1722890;81;26697;-78
2021/08/03 10:13:48;;;;;;;4.30;1.40;;;;;;;23.22;48.85;100568.97;1697929;81;25865;-78
2021/08/03 10:16:16;;;;;;;2.50;1.15;;;;;;;23.34;47.49;100566.82;1720582;81;27517;-78
2021/08/03 10:19:00;;;;;;;4.15;1.40;;;;;;;23.29;48.08;100573.06;1714143;82;25747;-78
2021/08/03 10:21:35;;;;;;;2.40;1.87;;;;;;;23.22;46.34;100575.80;1753078;81;26034;-79
2021/08/03 10:24:17;;;;;;;1.65;1.40;;;;;;;23.11;47.46;100580.42;1703941;81;25841;-78
2021/08/03 10:27:14;;;;;;;3.08;1.47;;;;;;;23.12;47.60;100576.58;1723903;81;25829;-77
2021/08/03 10:30:00;;;;;;;3.75;1.25;;;;;;;23.12;47.24;100577.16;1721398;81;28312;-77
2021/08/03 10:32:43;;;;;;;5.25;1.60;;;;;;;23.22;47.67;100575.80;1756413;80;25959;-78
2021/08/03 10:35:17;;;;;;;3.20;1.37;;;;;;;23.32;46.95;100568.98;1696043;81;25350;-78
2021/08/03 10:38:04;;;;;;;5.08;1.42;;;;;;;23.41;46.87;100572.85;1746597;81;26493;-78
2021/08/03 10:40:57;;;;;;;2.47;1.10;;;;;;;23.54;47.30;100565.48;1761947;79;25874;-78
2021/08/03 10:43:37;;;;;;;2.92;1.90;;;;;;;23.65;46.36;100564.41;1736538;82;27544;-78
2021/08/03 10:46:10;;;;;;;2.85;1.50;;;;;;;23.78;45.31;100564.66;1652166;82;26067;-78
2021/08/03 10:48:43;;;;;;;1.45;0.95;;;;;;;23.83;46.25;100563.01;1768970;80;25877;-78
2021/08/03 10:51:19;;;;;;;3.98;1.70;;;;;;;23.75;45.26;100566.59;1756961;80;26006;-78
2021/08/03 10:54:16;;;;;;;5.03;1.92;;;;;;;23.74;45.17;100565.47;1759287;80;25860;-78
2021/08/03 10:57:02;;;;;;;6.72;1.82;;;;;;;23.82;44.64;100562.21;1724193;81;27436;-79
2021/08/03 10:59:38;;;;;;;3.02;1.20;;;;;;;23.86;45.55;100561.11;1753871;81;26125;-79
2021/08/03 11:02:08;;;;;;;2.42;1.30;;;;;;;23.81;45.10;100572.04;1708041;82;25898;-79
2021/08/03 11:04:49;;;;;;;2.33;1.52;;;;;;;23.69;45.09;100570.39;1771431;80;25885;-79
2021/08/03 11:07:31;;;;;;;2.58;1.85;;;;;;;23.68;45.86;100562.47;1682670;82;25361;-78
2021/08/03 11:10:02;;;;;;;3.45;1.20;;;;;;;23.76;45.77;100555.08;1723933;81;28218;-79
2021/08/03 11:12:50;;;;;;;6.45;3.12;;;;;;;23.81;44.89;100562.47;1723678;81;25903;-79
2021/08/03 11:15:26;;;;;;;2.70;1.70;;;;;;;23.82;44.75;100555.37;1710620;82;25880;-78
2021/08/03 11:18:04;;;;;;;7.17;2.35;;;;;;;23.90;45.29;100558.09;1719938;81;26504;-79
2021/08/03 11:20:39;;;;;;;2.45;1.70;;;;;;;23.99;45.16;100553.70;1745118;81;25843;-78
2021/08/03 11:23:17;;;;;;;4.25;1.40;;;;;;;23.95;44.95;100557.52;1739137;81;28145;-79
2021/08/03 11:25:48;;;;;;;2.45;1.50;;;;;;;23.88;44.93;100558.38;1736277;82;25985;-78
2021/08/03 11:28:22;;;;;;;2.22;1.30;;;;;;;23.95;45.69;100553.98;1694329;80;34854;-79
2021/08/03 11:30:52;;;;;;;4.65;1.32;;;;;;;24.15;45.73;100556.16;1716604;81;26505;-79
2021/08/03 11:33:20;;;;;;;1.10;0.90;;;;;;;24.30;45.29;100551.20;1709019;82;26334;-78
2021/08/03 11:35:48;;;;;;;2.72;1.15;;;;;;;24.33;45.35;100550.11;1752737;80;27600;-78
2021/08/03 11:38:26;;;;;;;5.22;1.62;;;;;;;24.38;44.61;100549.25;1731106;81;25941;-78
2021/08/03 11:40:47;;;;;;;6.83;1.42;;;;;;;24.36;44.54;100545.43;1722120;81;25883;-78
2021/08/03 11:43:16;;;;;;;6.08;1.57;;;;;;;24.26;44.83;100541.91;1727165;81;25917;-79
2021/08/03 11:45:43;;;;;;;3.55;2.30;;;;;;;24.22;44.64;100543.02;1727654;82;25857;-79